Time;durP1;ratioP1;P1;durP2;ratioP2;P2;SDS_P1;SDS_P2;PMS_P1;PMS_P2;Temp;Humidity;BMP_temperature;BMP_pressure;BME280_temperature;BME280_humidity;BME280_pressure;Samples;Min_cycle;Max_cycle;Signal;HPM_P1;HPM_P2
2022/07/04 00:01:10;;;;;;;5.75;1.80;;;14.00;99.90;;;;;;6189795;23;20343;-90
2022/07/04 00:03:36;;;;;;;1.70;1.60;;;14.00;99.90;;;;;;6214961;23;20052;-88
2022/07/04 00:06:04;;;;;;;1.20;1.10;;;13.90;99.90;;;;;;6215091;23;20526;-88
2022/07/04 00:08:37;;;;;;;4.47;1.20;;;13.80;99.90;;;;;;6214488;23;20031;-88
2022/07/04 00:11:08;;;;;;;1.50;1.30;;;13.90;99.90;;;;;;6191028;23;20341;-90
2022/07/04 00:13:36;;;;;;;2.08;1.23;;;13.80;99.90;;;;;;6189089;23;20556;-88
2022/07/04 00:16:02;;;;;;;1.73;1.10;;;13.80;99.90;;;;;;6165263;23;20452;-89
2022/07/04 00:18:30;;;;;;;4.07;1.40;;;13.70;99.90;;;;;;6189211;23;20021;-88
2022/07/04 00:21:01;;;;;;;1.42;1.30;;;13.70;99.90;;;;;;6190090;23;20079;-88
2022/07/04 00:23:27;;;;;;;2.20;1.55;;;13.70;99.90;;;;;;6188724;23;20021;-88
2022/07/04 00:25:53;;;;;;;2.17;1.23;;;13.70;99.90;;;;;;6189716;23;20074;-88
2022/07/04 00:28:26;;;;;;;1.07;1.03;;;13.60;99.90;;;;;;6189045;23;20086;-88
2022/07/04 00:31:02;;;;;;;1.73;1.30;;;13.50;99.90;;;;;;6190893;23;20248;-89
2022/07/04 00:33:30;;;;;;;1.48;1.30;;;13.50;99.90;;;;;;6188852;23;20017;-88
2022/07/04 00:35:56;;;;;;;1.92;1.23;;;13.60;99.90;;;;;;6214642;23;20067;-88
2022/07/04 00:38:31;;;;;;;1.60;1.50;;;13.50;99.90;;;;;;6168027;23;20056;-88
2022/07/04 00:40:57;;;;;;;2.58;1.83;;;13.40;99.90;;;;;;6189369;23;20020;-88
2022/07/04 00:43:27;;;;;;;2.33;1.93;;;13.50;99.90;;;;;;6189017;23;20020;-88
2022/07/04 00:45:52;;;;;;;1.58;1.20;;;13.40;99.90;;;;;;6189428;23;20342;-88
2022/07/04 00:48:18;;;;;;;1.60;1.50;;;13.40;99.90;;;;;;6214405;23;20023;-89
2022/07/04 00:50:50;;;;;;;2.45;1.63;;;13.60;99.90;;;;;;6214673;23;20252;-89
2022/07/04 00:53:20;;;;;;;2.03;1.83;;;13.40;99.90;;;;;;6189359;23;20025;-88
2022/07/04 00:55:46;;;;;;;2.88;1.95;;;13.60;99.90;;;;;;6189647;23;20020;-89
2022/07/04 00:58:14;;;;;;;4.63;1.52;;;13.50;99.90;;;;;;6189396;23;20075;-87
2022/07/04 01:00:40;;;;;;;1.73;1.63;;;13.60;99.90;;;;;;6163754;23;20507;-88
2022/07/04 01:03:06;;;;;;;2.10;1.90;;;13.60;99.90;;;;;;6213889;23;20091;-89
2022/07/04 01:05:32;;;;;;;2.45;2.25;;;13.50;99.90;;;;;;6188544;23;20013;-89
2022/07/04 01:08:01;;;;;;;3.00;2.30;;;13.50;99.90;;;;;;6189245;23;20345;-89
2022/07/04 01:10:27;;;;;;;3.05;2.17;;;13.60;99.90;;;;;;6188945;23;20052;-88
2022/07/04 01:12:56;;;;;;;2.40;1.67;;;13.60;99.90;;;;;;6213857;23;20519;-88
2022/07/04 01:15:22;;;;;;;2.20;1.92;;;13.60;99.90;;;;;;6165008;23;20016;-90
2022/07/04 01:17:56;;;;;;;2.08;1.60;;;13.50;99.90;;;;;;6189286;23;20020;-88
2022/07/04 01:20:31;;;;;;;2.15;1.95;;;13.60;99.90;;;;;;6188857;23;20064;-93
2022/07/04 01:22:59;;;;;;;2.22;2.00;;;14.50;99.90;;;;;;6190892;23;20017;-88
2022/07/04 01:25:27;;;;;;;2.30;1.58;;;13.50;99.90;;;;;;6188876;23;20096;-90
2022/07/04 01:27:53;;;;;;;2.00;1.13;;;13.40;99.90;;;;;;6189184;23;20047;-89
2022/07/04 01:30:19;;;;;;;2.43;1.53;;;13.30;99.90;;;;;;6164059;23;20095;-88
2022/07/04 01:32:49;;;;;;;4.23;1.57;;;13.30;99.90;;;;;;6163669;23;20092;-88
2022/07/04 01:35:17;;;;;;;2.45;2.10;;;13.40;99.90;;;;;;6214207;23;20248;-88
2022/07/04 01:37:43;;;;;;;2.22;1.50;;;13.30;99.90;;;;;;6188734;23;20021;-88
2022/07/04 01:40:13;;;;;;;1.77;1.67;;;13.30;99.90;;;;;;6214057;23;20448;-89
2022/07/04 01:42:41;;;;;;;3.88;1.70;;;13.30;99.90;;;;;;6164118;23;20016;-88
2022/07/04 01:45:08;;;;;;;2.35;1.70;;;13.30;99.90;;;;;;6189100;23;20167;-88
2022/07/04 01:47:35;;;;;;;2.17;1.98;;;13.20;99.90;;;;;;6163773;23;20017;-88
2022/07/04 01:50:04;;;;;;;2.95;2.35;;;13.20;99.90;;;;;;6188954;23;20016;-88
2022/07/04 01:52:29;;;;;;;2.08;1.88;;;13.20;99.90;;;;;;6213288;23;20012;-89
2022/07/04 01:54:55;;;;;;;2.92;2.30;;;13.30;99.90;;;;;;6213782;23;20449;-88
2022/07/04 01:57:24;;;;;;;3.58;2.38;;;13.20;99.90;;;;;;6188822;23;20027;-88
2022/07/04 02:02:37;;;;;;;2.40;2.00;;;13.20;99.90;;;;;;6212881;23;20024;-89
2022/07/04 02:05:12;;;;;;;2.78;2.30;;;13.10;99.90;;;;;;6188827;23;20028;-89
2022/07/04 02:07:50;;;;;;;2.20;1.92;;;13.10;99.90;;;;;;6188561;23;20453;-88
2022/07/04 02:10:20;;;;;;;;;;;13.10;99.90;;;;;;6189194;23;20103;-89
2022/07/04 02:13:01;;;;;;;2.47;1.85;;;13.00;99.90;;;;;;6213183;23;20084;-89
2022/07/04 02:15:33;;;;;;;3.70;1.73;;;13.10;99.90;;;;;;6189063;23;20051;-89
2022/07/04 02:17:59;;;;;;;3.75;1.63;;;13.10;99.90;;;;;;6188696;23;20322;-89
2022/07/04 02:25:36;;;;;;;2.95;2.00;;;13.00;99.90;;;;;;6227952;22;20028;-87
2022/07/04 02:28:02;;;;;;;1.90;1.73;;;12.90;99.90;;;;;;6193407;23;20026;-87
2022/07/04 02:30:29;;;;;;;2.13;1.87;;;12.90;99.90;;;;;;6169245;23;20038;-87
2022/07/04 02:32:55;;;;;;;1.80;1.67;;;12.80;99.90;;;;;;6193867;23;20016;-87
2022/07/04 02:35:21;;;;;;;2.40;1.90;;;12.80;99.90;;;;;;6194290;23;20020;-87
2022/07/04 02:37:47;;;;;;;2.90;2.20;;;12.80;99.90;;;;;;6218935;23;20016;-88
2022/07/04 02:40:13;;;;;;;3.23;1.87;;;12.70;99.90;;;;;;6169131;23;20016;-88
2022/07/04 02:42:38;;;;;;;3.22;1.92;;;12.80;99.90;;;;;;6168313;23;20534;-87
2022/07/04 02:45:05;;;;;;;4.70;2.57;;;12.70;99.90;;;;;;6168295;23;20051;-88
2022/07/04 02:47:31;;;;;;;1.33;1.23;;;12.60;99.90;;;;;;6193167;23;20055;-87
2022/07/04 02:49:57;;;;;;;1.90;1.47;;;12.60;99.90;;;;;;6169365;23;20340;-87
2022/07/04 02:52:23;;;;;;;1.93;1.47;;;12.60;99.90;;;;;;6193487;23;20251;-87
2022/07/04 02:54:49;;;;;;;2.03;1.67;;;12.60;99.90;;;;;;6193024;23;20462;-88
2022/07/04 02:57:15;;;;;;;2.53;1.50;;;12.50;99.90;;;;;;6218924;23;20119;-87
2022/07/04 02:59:40;;;;;;;2.00;1.77;;;12.50;99.90;;;;;;6194637;23;20134;-88
2022/07/04 03:02:06;;;;;;;2.20;1.90;;;12.50;99.90;;;;;;6167989;23;20244;-87
2022/07/04 03:04:32;;;;;;;2.90;2.07;;;12.50;99.90;;;;;;6169103;23;20744;-88
2022/07/04 03:06:58;;;;;;;1.90;1.80;;;12.50;99.90;;;;;;6244263;23;20247;-88
2022/07/04 03:09:27;;;;;;;2.83;2.03;;;12.60;99.90;;;;;;6193266;23;20016;-88
2022/07/04 03:11:52;;;;;;;3.17;2.85;;;12.50;99.90;;;;;;6192924;23;20020;-88
2022/07/04 03:14:18;;;;;;;3.00;2.20;;;12.50;99.90;;;;;;6167892;23;20023;-87
2022/07/04 03:16:44;;;;;;;2.13;1.80;;;12.50;99.90;;;;;;6143911;23;20020;-88
2022/07/04 03:19:10;;;;;;;4.17;2.33;;;12.50;99.90;;;;;;6167122;23;20086;-87
2022/07/04 03:21:35;;;;;;;2.45;2.25;;;12.50;99.90;;;;;;6192994;23;20336;-88
2022/07/04 03:24:01;;;;;;;2.80;1.97;;;12.50;99.90;;;;;;6167278;23;20051;-87
2022/07/04 03:26:32;;;;;;;2.97;2.10;;;12.50;99.90;;;;;;6193201;23;20071;-87
2022/07/04 03:28:59;;;;;;;3.88;2.35;;;12.40;99.90;;;;;;6193358;23;20012;-87
2022/07/04 03:31:26;;;;;;;4.03;2.22;;;12.40;99.90;;;;;;6195315;23;20441;-87
2022/07/04 03:33:52;;;;;;;2.65;2.05;;;12.40;99.90;;;;;;6194826;23;20018;-89
2022/07/04 03:36:18;;;;;;;2.75;2.53;;;12.40;99.90;;;;;;6171460;23;20090;-88
2022/07/04 03:38:44;;;;;;;3.28;2.28;;;12.40;99.90;;;;;;6195793;23;20390;-87
2022/07/04 03:41:11;;;;;;;3.08;2.40;;;12.40;99.90;;;;;;6170197;23;20023;-87
2022/07/04 03:43:37;;;;;;;3.17;2.67;;;12.40;99.90;;;;;;6195093;23;20344;-87
2022/07/04 03:46:03;;;;;;;3.45;2.20;;;12.40;99.90;;;;;;6194165;23;20467;-87
2022/07/04 03:48:28;;;;;;;2.63;1.83;;;12.40;99.90;;;;;;6195236;23;20020;-87
2022/07/04 03:50:54;;;;;;;4.70;2.30;;;12.40;99.90;;;;;;6170700;23;20012;-89
2022/07/04 03:53:21;;;;;;;2.40;2.10;;;12.40;99.90;;;;;;6170389;23;20262;-87
2022/07/04 03:55:47;;;;;;;;;;;12.40;99.90;;;;;;6195623;23;20447;-87
2022/07/04 03:58:12;;;;;;;3.65;2.42;;;11.30;99.90;;;;;;6169787;23;19923;-88
2022/07/04 04:00:38;;;;;;;2.63;2.10;;;12.40;99.90;;;;;;6169490;23;20031;-87
2022/07/04 04:05:26;;;;;;;3.03;2.00;;;12.40;99.90;;;;;;6195148;23;20016;-88
2022/07/04 04:05:50;;;;;;;4.10;3.13;;;12.40;99.90;;;;;;6199094;23;20027;-87
2022/07/04 04:08:15;;;;;;;2.60;2.40;;;12.50;99.90;;;;;;6169399;23;20115;-87
2022/07/04 04:10:42;;;;;;;3.30;2.57;;;12.40;99.90;;;;;;6170860;23;20020;-87
2022/07/04 04:13:08;;;;;;;;;;;12.50;99.90;;;;;;6219643;23;20023;-87
2022/07/04 04:15:34;;;;;;;3.08;2.50;;;12.50;99.90;;;;;;6219026;23;19947;-87
2022/07/04 04:17:59;;;;;;;7.57;3.03;;;12.50;99.90;;;;;;6194190;23;20070;-89
2022/07/04 04:20:25;;;;;;;4.53;3.40;;;11.70;99.90;;;;;;6193882;23;20247;-88
2022/07/04 04:22:51;;;;;;;6.70;3.20;;;12.60;99.90;;;;;;6145656;23;20435;-88
2022/07/04 04:25:17;;;;;;;4.17;3.20;;;12.70;99.90;;;;;;6169069;23;20032;-88
2022/07/04 04:27:43;;;;;;;3.53;3.15;;;12.70;99.90;;;;;;6194219;23;20024;-88
2022/07/04 04:30:09;;;;;;;5.27;2.83;;;12.80;99.90;;;;;;6218330;23;20020;-88
2022/07/04 04:32:35;;;;;;;5.53;3.22;;;12.80;99.90;;;;;;6194428;23;20104;-88
2022/07/04 04:35:01;;;;;;;4.60;3.33;;;12.90;99.90;;;;;;6169336;23;20047;-89
2022/07/04 04:37:26;;;;;;;3.90;3.43;;;12.90;99.90;;;;;;6193860;23;20309;-88
2022/07/04 04:39:52;;;;;;;3.47;2.90;;;13.00;99.90;;;;;;6168862;23;20016;-89
2022/07/04 04:42:18;;;;;;;3.37;3.07;;;13.10;99.90;;;;;;6144270;23;20103;-88
2022/07/04 04:44:43;;;;;;;3.87;3.47;;;13.10;99.90;;;;;;6169997;23;20090;-88
2022/07/04 04:47:09;;;;;;;4.10;3.47;;;13.20;99.90;;;;;;6194216;23;20016;-87
2022/07/04 04:49:35;;;;;;;7.43;3.63;;;13.30;99.90;;;;;;6170578;23;20394;-87
2022/07/04 04:52:01;;;;;;;4.77;4.07;;;13.40;99.90;;;;;;6193796;23;20347;-88
2022/07/04 04:54:26;;;;;;;8.43;3.75;;;13.40;99.90;;;;;;6193909;23;20466;-87
2022/07/04 04:56:52;;;;;;;4.20;3.47;;;13.50;99.90;;;;;;6169385;23;20016;-87
2022/07/04 04:59:18;;;;;;;4.13;3.20;;;13.60;99.90;;;;;;6193677;23;20020;-87
2022/07/04 05:01:43;;;;;;;4.57;3.17;;;13.60;99.90;;;;;;6194241;23;20020;-87
2022/07/04 05:04:09;;;;;;;6.10;3.53;;;13.80;99.90;;;;;;6218846;23;20017;-87
2022/07/04 05:06:35;;;;;;;3.30;2.88;;;13.90;99.90;;;;;;6193922;23;20027;-87
2022/07/04 05:09:01;;;;;;;3.22;2.90;;;14.00;99.90;;;;;;6194908;23;20020;-87
2022/07/04 05:11:27;;;;;;;4.97;3.15;;;14.00;99.90;;;;;;6169058;23;20052;-87
2022/07/04 05:13:53;;;;;;;7.33;3.87;;;14.00;99.90;;;;;;6194099;23;20509;-86
2022/07/04 05:16:18;;;;;;;6.93;3.87;;;14.10;99.90;;;;;;6217965;23;20152;-87
2022/07/04 05:18:44;;;;;;;7.27;4.07;;;14.30;99.90;;;;;;6168660;23;20094;-87
2022/07/04 05:21:10;;;;;;;5.97;4.17;;;14.50;99.90;;;;;;6168428;23;20020;-87
2022/07/04 05:23:35;;;;;;;7.80;4.60;;;14.60;99.90;;;;;;6168976;23;20024;-87
2022/07/04 05:26:01;;;;;;;7.80;4.53;;;14.70;99.90;;;;;;6168693;23;20091;-87
2022/07/04 05:28:27;;;;;;;9.00;5.50;;;14.90;99.90;;;;;;6218504;23;20056;-87
2022/07/04 05:30:53;;;;;;;7.57;4.07;;;15.00;99.90;;;;;;6219338;23;20090;-87
2022/07/04 05:33:18;;;;;;;5.43;3.60;;;15.20;99.90;;;;;;6193236;23;20638;-87
2022/07/04 05:35:44;;;;;;;6.07;4.40;;;15.30;99.90;;;;;;6218900;23;20016;-87
2022/07/04 05:38:10;;;;;;;5.27;3.97;;;15.40;99.90;;;;;;6169117;23;20254;-89
2022/07/04 05:40:35;;;;;;;8.90;4.18;;;15.50;99.90;;;;;;6194231;23;20387;-87
2022/07/04 05:43:01;;;;;;;6.00;4.27;;;15.60;99.90;;;;;;6169116;23;20058;-86
2022/07/04 05:45:27;;;;;;;7.53;3.50;;;15.70;99.90;;;;;;6168361;23;20078;-87
2022/07/04 05:47:53;;;;;;;9.27;3.97;;;15.80;99.90;;;;;;6168953;23;20102;-87
2022/07/04 05:50:18;;;;;;;5.47;4.37;;;16.00;99.90;;;;;;6217629;23;20016;-87
2022/07/04 05:52:44;;;;;;;5.28;3.80;;;16.10;99.90;;;;;;6193204;23;20333;-87
2022/07/04 05:55:10;;;;;;;9.13;3.60;;;16.20;99.90;;;;;;6168703;23;20013;-87
2022/07/04 05:57:36;;;;;;;4.68;3.25;;;16.30;99.90;;;;;;6171333;23;20016;-88
2022/07/04 06:00:03;;;;;;;6.53;4.22;;;16.40;99.90;;;;;;6218278;23;20019;-89
2022/07/04 06:02:29;;;;;;;4.35;3.53;;;15.40;99.90;;;;;;6168494;23;20094;-90
2022/07/04 06:04:58;;;;;;;4.70;3.63;;;15.40;99.90;;;;;;6193476;23;20055;-91
2022/07/04 06:07:24;;;;;;;4.80;3.53;;;16.60;99.90;;;;;;6169234;23;20024;-89
2022/07/04 06:09:52;;;;;;;8.23;5.05;;;16.70;99.90;;;;;;6194661;23;20439;-89
2022/07/04 06:12:20;;;;;;;5.43;3.75;;;17.10;99.90;;;;;;6193350;23;20024;-89
2022/07/04 06:14:51;;;;;;;5.63;3.95;;;17.00;99.90;;;;;;6168569;23;20012;-89
2022/07/04 06:17:17;;;;;;;5.43;3.30;;;16.90;99.90;;;;;;6193861;23;20016;-92
2022/07/04 06:19:45;;;;;;;7.72;3.28;;;16.00;99.90;;;;;;6219042;23;20016;-89
2022/07/04 06:22:13;;;;;;;3.83;2.72;;;17.00;99.90;;;;;;6194322;23;20020;-89
2022/07/04 06:24:41;;;;;;;5.43;3.38;;;16.90;99.90;;;;;;6187759;23;20017;-94
2022/07/04 06:27:10;;;;;;;5.40;3.40;;;17.00;99.90;;;;;;6215237;23;20020;-94
2022/07/04 06:29:40;;;;;;;3.92;2.22;;;16.90;99.90;;;;;;6189424;23;20081;-92
2022/07/04 06:32:12;;;;;;;5.80;2.67;;;16.90;99.90;;;;;;6191931;23;20031;-93
2022/07/04 06:38:30;;;;;;;2.45;2.22;;;17.90;99.90;;;;;;6158896;23;20062;-94
2022/07/04 06:41:02;;;;;;;3.28;2.47;;;16.70;99.90;;;;;;6190999;23;20444;-95
2022/07/04 06:43:33;;;;;;;3.80;2.63;;;17.40;99.90;;;;;;6166523;23;20070;-96
2022/07/04 06:46:02;;;;;;;3.33;2.72;;;17.50;99.90;;;;;;6168253;23;20055;-95
2022/07/04 06:48:41;;;;;;;3.78;2.42;;;17.60;99.90;;;;;;6217425;23;20028;-96
2022/07/04 06:51:17;;;;;;;;;;;;;;;;;;;;;
2022/07/04 06:53:51;;;;;;;3.05;2.47;;;17.70;99.90;;;;;;6214633;23;20027;-95
2022/07/04 06:56:19;;;;;;;4.15;2.22;;;17.70;99.90;;;;;;6191663;23;20048;-96
2022/07/04 06:58:51;;;;;;;3.20;2.17;;;17.80;99.90;;;;;;6192909;23;20093;-96
2022/07/04 07:01:18;;;;;;;3.30;2.40;;;17.90;99.90;;;;;;6192719;23;20107;-91
2022/07/04 07:03:49;;;;;;;5.18;3.17;;;18.10;99.90;;;;;;6213553;23;20063;-91
2022/07/04 07:06:15;;;;;;;4.53;2.45;;;18.10;99.90;;;;;;6188445;23;20021;-90
2022/07/04 07:08:43;;;;;;;4.07;2.58;;;18.10;99.90;;;;;;6187988;23;20027;-90
2022/07/04 07:11:12;;;;;;;3.50;2.40;;;18.10;99.90;;;;;;6188927;23;20021;-89
2022/07/04 07:13:42;;;;;;;3.60;2.38;;;18.10;99.90;;;;;;6188460;23;20078;-94
2022/07/04 07:16:10;;;;;;;5.45;2.50;;;18.30;99.90;;;;;;6164853;23;20317;-91
2022/07/04 07:18:36;;;;;;;2.88;2.50;;;18.30;99.90;;;;;;6223122;23;20012;-96
2022/07/04 07:21:22;;;;;;;3.42;2.47;;;18.30;99.90;;;;;;6191788;23;20092;-93
2022/07/04 07:24:03;;;;;;;;;;;;;;;;;;;;;
2022/07/04 07:26:29;;;;;;;4.28;2.28;;;18.00;99.90;;;;;;6226696;23;20012;-96
2022/07/04 07:29:05;;;;;;;;;;;;;;;;;;;;;
2022/07/04 07:32:00;;;;;;;4.53;2.35;;;17.60;99.90;;;;;;6238893;23;20012;-96
2022/07/04 07:34:34;;;;;;;4.73;3.67;;;17.90;99.90;;;;;;6180170;23;20046;-95
2022/07/04 07:37:03;;;;;;;3.58;2.60;;;17.90;99.90;;;;;;6194935;23;20095;-95
2022/07/04 07:39:31;;;;;;;5.32;2.60;;;18.10;99.90;;;;;;6195142;23;20104;-96
2022/07/04 07:42:09;;;;;;;7.32;3.00;;;17.20;99.90;;;;;;6196142;23;20020;-96
2022/07/04 07:44:38;;;;;;;4.53;2.92;;;17.20;99.90;;;;;;6206481;23;20016;-96
2022/07/04 07:47:24;;;;;;;7.32;2.03;;;18.30;99.90;;;;;;6226542;23;20039;-96
2022/07/04 07:50:03;;;;;;;9.63;2.80;;;18.50;99.90;;;;;;6225739;23;20514;-95
2022/07/04 07:52:32;;;;;;;4.63;2.75;;;18.70;99.90;;;;;;6173266;23;20022;-95
2022/07/04 07:54:59;;;;;;;4.43;2.95;;;18.50;99.90;;;;;;6219254;23;20318;-95
2022/07/04 07:57:33;;;;;;;5.13;2.55;;;17.40;99.90;;;;;;6219501;23;20020;-94
2022/07/04 07:59:58;;;;;;;4.88;2.85;;;18.60;99.90;;;;;;6194854;23;20020;-87
2022/07/04 08:05:11;;;;;;;4.47;2.10;;;18.70;99.90;;;;;;6218861;23;20024;-89
2022/07/04 08:07:37;;;;;;;3.72;3.20;;;18.60;99.90;;;;;;6193006;23;20047;-90
2022/07/04 08:10:03;;;;;;;;;;;18.60;99.90;;;;;;6219218;23;20187;-90
2022/07/04 08:12:29;;;;;;;4.53;1.92;;;18.70;99.90;;;;;;6194807;23;20278;-89
2022/07/04 08:14:55;;;;;;;5.15;2.83;;;18.80;99.90;;;;;;6170347;23;20095;-89
2022/07/04 08:17:20;;;;;;;2.60;1.98;;;18.70;99.90;;;;;;6197770;23;20094;-90
2022/07/04 08:19:47;;;;;;;3.42;2.10;;;18.70;99.90;;;;;;6169585;23;20152;-90
2022/07/04 08:22:13;;;;;;;2.33;1.55;;;18.90;99.90;;;;;;6195112;23;20332;-90
2022/07/04 08:24:39;;;;;;;3.50;2.22;;;19.00;99.90;;;;;;6188804;23;20021;-90
2022/07/04 08:27:05;;;;;;;4.40;1.85;;;19.10;99.90;;;;;;6214740;23;20440;-89
2022/07/04 08:29:32;;;;;;;2.28;1.63;;;19.20;99.90;;;;;;6165105;23;20027;-90
2022/07/04 08:31:57;;;;;;;3.42;2.72;;;19.30;99.90;;;;;;6214649;23;20096;-89
2022/07/04 08:34:23;;;;;;;1.63;1.52;;;19.40;99.90;;;;;;6215033;23;20055;-89
2022/07/04 08:36:49;;;;;;;2.33;1.52;;;19.50;99.90;;;;;;6189253;23;20096;-90
2022/07/04 08:39:15;;;;;;;1.85;1.48;;;19.50;99.90;;;;;;6190151;23;20352;-90
2022/07/04 08:41:41;;;;;;;3.30;1.50;;;19.60;99.90;;;;;;6165311;23;20048;-89
2022/07/04 08:44:10;;;;;;;;;;;19.70;99.90;;;;;;6215193;23;20277;-90
2022/07/04 08:46:39;;;;;;;2.85;1.58;;;19.30;99.90;;;;;;6166201;23;20240;-90
2022/07/04 08:49:11;;;;;;;5.07;2.15;;;19.80;99.90;;;;;;6214780;23;20120;-90
2022/07/04 08:52:00;;;;;;;2.33;2.08;;;19.90;99.90;;;;;;6215334;23;20456;-90
2022/07/04 08:59:58;;;;;;;2.50;1.35;;;20.00;99.90;;;;;;6216532;23;20028;-91
2022/07/04 09:02:27;;;;;;;1.55;1.42;;;19.80;99.90;;;;;;6190816;23;20452;-89
2022/07/04 09:04:56;;;;;;;3.58;1.88;;;19.60;99.90;;;;;;6188907;23;20016;-88
2022/07/04 09:07:22;;;;;;;3.60;1.40;;;19.50;99.90;;;;;;6191396;23;20386;-89
2022/07/04 09:09:49;;;;;;;4.60;1.95;;;19.40;99.90;;;;;;6164810;23;20020;-89
2022/07/04 09:12:25;;;;;;;2.15;1.48;;;19.20;99.90;;;;;;6189911;23;20017;-89
2022/07/04 09:14:53;;;;;;;1.80;1.52;;;19.20;99.90;;;;;;6189506;23;20445;-89
2022/07/04 09:17:20;;;;;;;1.95;1.10;;;19.10;99.90;;;;;;6142617;23;20023;-89
2022/07/04 09:20:11;;;;;;;2.40;1.80;;;19.00;99.90;;;;;;6188781;23;20023;-89
2022/07/04 09:22:36;;;;;;;2.85;1.52;;;18.90;99.90;;;;;;6190681;23;20330;-89
2022/07/04 09:25:05;;;;;;;1.25;1.15;;;18.80;99.90;;;;;;6164558;23;20059;-88
2022/07/04 09:27:40;;;;;;;1.98;1.20;;;18.80;99.90;;;;;;6189388;23;20021;-89
2022/07/04 09:30:06;;;;;;;2.85;1.23;;;18.80;99.90;;;;;;6214241;23;20019;-88
2022/07/04 09:32:38;;;;;;;;;;;18.90;99.90;;;;;;6165307;23;20021;-89
2022/07/04 09:35:09;;;;;;;1.85;1.35;;;19.20;99.90;;;;;;6188380;23;19950;-89
2022/07/04 09:37:45;;;;;;;1.20;1.10;;;19.30;99.90;;;;;;6189397;23;20021;-88
2022/07/04 09:40:20;;;;;;;1.00;0.98;;;19.60;99.90;;;;;;6214186;23;20468;-89
2022/07/04 09:42:46;;;;;;;1.67;1.17;;;19.70;99.90;;;;;;6188523;23;20110;-90
2022/07/04 09:45:12;;;;;;;1.40;1.17;;;20.10;99.90;;;;;;6189151;23;20340;-89
2022/07/04 09:47:41;;;;;;;3.00;1.17;;;19.90;99.90;;;;;;6164737;23;20017;-89
2022/07/04 09:50:18;;;;;;;1.15;0.80;;;19.90;99.90;;;;;;6188376;23;20020;-90
2022/07/04 09:52:50;;;;;;;;;;;20.00;99.90;;;;;;6189148;23;20052;-90
2022/07/04 09:55:23;;;;;;;0.63;0.50;;;20.10;99.90;;;;;;6188967;23;19923;-91
2022/07/04 09:57:54;;;;;;;2.17;0.68;;;20.20;99.90;;;;;;6188637;23;20491;-91
2022/07/04 10:00:21;;;;;;;0.68;0.55;;;20.10;99.90;;;;;;6214116;23;20023;-89
2022/07/04 10:02:48;;;;;;;1.35;0.90;;;20.20;99.90;;;;;;6187880;23;20079;-91
2022/07/04 10:05:22;;;;;;;1.30;0.85;;;20.30;99.90;;;;;;6214315;23;20024;-90
2022/07/04 10:07:48;;;;;;;0.60;0.60;;;20.30;99.90;;;;;;6188472;23;20016;-90
2022/07/04 10:10:23;;;;;;;1.60;0.80;;;20.40;99.90;;;;;;6189631;23;20016;-94
2022/07/04 10:12:50;;;;;;;0.70;0.70;;;20.50;99.90;;;;;;6219308;23;20018;-91
2022/07/04 10:15:19;;;;;;;0.57;0.57;;;20.60;99.90;;;;;;6189251;23;20059;-90
2022/07/04 10:17:45;;;;;;;0.57;0.57;;;20.50;99.90;;;;;;6217335;23;20025;-93
2022/07/04 10:20:12;;;;;;;0.60;0.60;;;20.50;99.90;;;;;;6215252;23;20502;-93
2022/07/04 10:22:38;;;;;;;1.73;0.75;;;20.50;99.90;;;;;;6190082;23;20021;-93
2022/07/04 10:25:05;;;;;;;1.40;0.65;;;20.40;99.90;;;;;;6189115;23;20099;-92
2022/07/04 10:27:31;;;;;;;3.05;0.60;;;20.50;99.90;;;;;;6164866;23;20474;-92
2022/07/04 10:29:59;;;;;;;3.45;1.42;;;20.50;99.90;;;;;;6188980;23;20052;-91
2022/07/04 10:32:26;;;;;;;1.63;0.57;;;20.70;99.90;;;;;;6164957;23;20099;-91
2022/07/04 10:34:52;;;;;;;2.83;1.13;;;20.80;99.90;;;;;;6213929;23;20013;-93
2022/07/04 10:37:18;;;;;;;0.82;0.82;;;20.90;99.90;;;;;;6189245;23;20016;-91
2022/07/04 10:39:44;;;;;;;1.67;0.73;;;21.00;99.90;;;;;;6213980;23;20044;-92
2022/07/04 10:42:23;;;;;;;2.35;0.82;;;20.90;99.90;;;;;;6164039;23;20074;-91
2022/07/04 10:44:53;;;;;;;4.80;1.23;;;20.80;99.90;;;;;;6214029;23;20101;-92
2022/07/04 10:47:29;;;;;;;1.02;0.60;;;20.70;99.90;;;;;;6164123;23;20020;-91
2022/07/04 10:49:55;;;;;;;1.70;1.27;;;20.70;99.90;;;;;;6163908;23;20020;-89
2022/07/04 10:52:21;;;;;;;1.10;0.88;;;20.70;99.90;;;;;;6188479;23;20024;-87
2022/07/04 10:54:46;;;;;;;0.80;0.80;;;20.60;99.90;;;;;;6188372;23;20506;-88
2022/07/04 10:57:21;;;;;;;0.80;0.80;;;20.60;99.90;;;;;;6163016;23;20024;-86
2022/07/04 10:59:59;;;;;;;0.95;0.80;;;20.70;99.90;;;;;;6213642;23;20016;-86
2022/07/04 11:02:34;;;;;;;1.35;0.80;;;20.80;99.90;;;;;;6213767;23;20023;-86
2022/07/04 11:05:11;;;;;;;1.58;1.20;;;20.90;99.90;;;;;;6188793;23;20487;-93
2022/07/04 11:07:48;;;;;;;4.00;1.52;;;21.00;99.90;;;;;;6190290;23;20017;-90
2022/07/04 11:10:21;;;;;;;0.85;0.80;;;21.10;99.90;;;;;;6187835;23;20521;-90
2022/07/04 11:13:02;;;;;;;1.30;1.20;;;21.20;99.90;;;;;;6213754;23;20043;-90
2022/07/04 11:15:30;;;;;;;1.50;1.33;;;21.40;99.90;;;;;;6189409;23;20016;-90
2022/07/04 11:18:00;;;;;;;0.60;0.60;;;21.60;99.90;;;;;;6188771;23;20463;-90
2022/07/04 11:20:29;;;;;;;1.88;0.98;;;20.90;99.90;;;;;;6188752;23;20021;-90
2022/07/04 11:23:09;;;;;;;1.27;0.90;;;20.90;99.90;;;;;;6188974;23;20024;-90
2022/07/04 11:25:39;;;;;;;1.52;0.80;;;20.90;99.90;;;;;;6213947;23;20111;-91
2022/07/04 11:28:23;;;;;;;1.55;0.90;;;20.80;99.90;;;;;;6188606;23;20031;-90
2022/07/04 11:31:04;;;;;;;0.77;0.77;;;20.70;99.90;;;;;;6188404;23;20020;-90
2022/07/04 11:33:33;;;;;;;0.93;0.75;;;20.70;99.90;;;;;;6213399;23;20023;-90
2022/07/04 11:36:20;;;;;;;1.30;1.20;;;20.70;99.90;;;;;;6188015;23;20039;-90
2022/07/04 11:38:53;;;;;;;1.10;0.88;;;21.00;99.90;;;;;;6188665;23;20095;-91
2022/07/04 11:47:10;;;;;;;;;;;21.20;99.90;;;;;;6215245;23;20531;-89
2022/07/04 11:49:40;;;;;;;0.93;0.85;;;21.30;99.90;;;;;;6189952;23;19916;-89
2022/07/04 11:52:09;;;;;;;0.63;0.63;;;21.40;99.90;;;;;;6190530;23;20020;-87
2022/07/04 11:54:35;;;;;;;1.48;1.30;;;21.40;99.90;;;;;;6214571;23;20067;-88
2022/07/04 11:57:19;;;;;;;2.53;0.60;;;21.60;99.90;;;;;;6165566;23;20395;-92
2022/07/04 11:59:58;;;;;;;1.05;0.60;;;21.10;99.90;;;;;;6191162;23;20020;-92
2022/07/04 12:02:28;;;;;;;1.17;1.00;;;21.90;99.90;;;;;;6190236;23;20027;-91
2022/07/04 12:04:54;;;;;;;0.80;0.80;;;21.10;99.90;;;;;;6190475;23;20074;-91
2022/07/04 12:07:22;;;;;;;0.98;0.95;;;22.00;99.90;;;;;;6191050;23;20017;-89
2022/07/04 12:09:52;;;;;;;1.02;0.70;;;22.00;99.90;;;;;;6191213;23;20424;-91
2022/07/04 12:12:19;;;;;;;0.77;0.75;;;22.10;99.90;;;;;;6214956;23;20100;-90
2022/07/04 12:15:05;;;;;;;0.60;0.60;;;21.90;99.90;;;;;;6215087;23;20436;-90
2022/07/04 12:17:40;;;;;;;1.48;0.90;;;21.70;99.90;;;;;;6190719;23;20099;-91
2022/07/04 12:20:18;;;;;;;0.88;0.88;;;21.50;99.90;;;;;;6164887;23;20040;-91
2022/07/04 12:23:01;;;;;;;0.52;0.52;;;21.50;99.90;;;;;;6167355;23;20396;-91
2022/07/04 12:25:39;;;;;;;0.88;0.70;;;21.60;99.90;;;;;;6215571;23;20021;-91
2022/07/04 12:28:08;;;;;;;0.65;0.65;;;21.50;99.90;;;;;;6216763;23;20021;-91
2022/07/04 12:30:39;;;;;;;0.82;0.82;;;21.40;99.90;;;;;;6190544;23;20046;-91
2022/07/04 12:33:07;;;;;;;2.30;0.77;;;20.70;99.90;;;;;;6190103;23;20445;-91
2022/07/04 12:35:40;;;;;;;1.48;0.80;;;21.40;99.90;;;;;;6189636;23;20026;-92
2022/07/04 12:38:22;;;;;;;0.65;0.50;;;22.00;99.90;;;;;;6188690;23;20052;-92
2022/07/04 12:41:15;;;;;;;0.88;0.70;;;21.50;99.90;;;;;;6190108;23;20063;-90
2022/07/04 12:43:40;;;;;;;0.68;0.68;;;21.60;99.90;;;;;;6189727;23;20306;-91
2022/07/04 12:46:33;;;;;;;1.30;0.90;;;21.60;99.90;;;;;;6190414;23;20020;-91
2022/07/04 12:49:01;;;;;;;0.40;0.40;;;21.70;99.90;;;;;;6181237;23;20025;-91
2022/07/04 12:51:32;;;;;;;1.17;0.77;;;21.70;99.90;;;;;;6188544;23;20016;-90
2022/07/04 12:53:59;;;;;;;0.47;0.47;;;21.60;99.90;;;;;;6214109;23;20091;-91
2022/07/04 12:56:40;;;;;;;1.75;0.65;;;21.60;99.90;;;;;;6188465;23;20020;-90
2022/07/04 12:59:19;;;;;;;1.08;0.93;;;20.90;99.90;;;;;;6189364;23;20039;-91
2022/07/04 13:01:46;;;;;;;1.60;0.40;;;20.80;99.90;;;;;;6189269;23;20021;-92
2022/07/04 13:04:16;;;;;;;0.93;0.82;;;21.70;99.90;;;;;;6166606;23;20449;-90
2022/07/04 13:06:42;;;;;;;4.20;0.50;;;21.80;99.90;;;;;;6141149;23;20060;-92
2022/07/04 13:09:08;;;;;;;1.00;0.75;;;21.80;99.90;;;;;;6214483;23;20074;-91
2022/07/04 13:14:33;;;;;;;1.05;0.55;;;22.00;99.90;;;;;;6180762;23;20024;-91
2022/07/04 13:16:59;;;;;;;0.60;0.60;;;22.00;99.90;;;;;;6214055;23;20043;-89
2022/07/04 13:19:25;;;;;;;0.77;0.77;;;22.00;99.90;;;;;;6213496;23;20017;-91
2022/07/04 13:21:51;;;;;;;1.65;1.00;;;22.10;99.90;;;;;;6188731;23;20078;-91
2022/07/04 13:24:17;;;;;;;2.35;0.80;;;22.00;99.90;;;;;;6214611;23;20056;-91
2022/07/04 13:26:43;;;;;;;0.60;0.60;;;22.00;99.90;;;;;;6193882;23;20016;-91
2022/07/04 13:29:11;;;;;;;0.68;0.57;;;22.00;99.90;;;;;;6218739;23;20149;-90
2022/07/04 13:31:37;;;;;;;1.02;0.80;;;22.10;99.90;;;;;;6193128;23;20467;-93